Time;durP1;ratioP1;P1;durP2;ratioP2;P2;SDS_P1;SDS_P2;PMS_P1;PMS_P2;Temp;Humidity;BMP_temperature;BMP_pressure;BME280_temperature;BME280_humidity;BME280_pressure;Samples;Min_cycle;Max_cycle;Signal;HPM_P1;HPM_P2
2022/03/18 00:02:17;;;;;;;11.18;10.07;;;20.80;64.70;;;;;;6157020;28;89183;-65
2022/03/18 00:05:20;;;;;;;11.68;10.57;;;20.80;64.60;;;;;;6157606;28;90578;-65
2022/03/18 00:08:23;;;;;;;12.05;10.90;;;20.80;64.60;;;;;;6158833;28;89366;-65
2022/03/18 00:11:26;;;;;;;11.85;10.50;;;20.80;64.60;;;;;;6157779;28;87985;-65
2022/03/18 00:14:28;;;;;;;12.10;10.90;;;20.80;64.50;;;;;;6180899;28;87034;-64
2022/03/18 00:17:30;;;;;;;11.75;10.65;;;20.80;64.40;;;;;;6181037;28;89517;-64
2022/03/18 00:20:32;;;;;;;11.45;10.30;;;20.80;64.40;;;;;;6180793;28;89019;-65
2022/03/18 00:23:36;;;;;;;12.30;11.10;;;20.80;64.30;;;;;;6182690;28;89093;-65
2022/03/18 00:26:38;;;;;;;12.88;11.40;;;20.80;64.10;;;;;;6181051;28;88332;-65
2022/03/18 00:29:41;;;;;;;11.80;10.57;;;20.80;63.90;;;;;;6182634;28;89248;-64
2022/03/18 00:32:49;;;;;;;11.68;10.57;;;20.70;63.40;;;;;;6182711;28;89024;-65
2022/03/18 00:35:51;;;;;;;11.13;10.13;;;20.80;63.60;;;;;;6181432;28;90441;-64
2022/03/18 00:38:55;;;;;;;11.85;10.75;;;20.70;63.60;;;;;;6180965;28;89069;-65
2022/03/18 00:41:57;;;;;;;11.23;10.13;;;20.80;63.60;;;;;;6182012;28;89437;-65
2022/03/18 00:44:59;;;;;;;11.70;10.57;;;20.70;63.50;;;;;;6182045;28;89003;-65
2022/03/18 00:54:43;;;;;;;11.40;10.32;;;20.70;63.40;;;;;;6170460;28;87142;-65
2022/03/18 00:57:46;;;;;;;12.07;10.77;;;20.80;63.50;;;;;;6156891;28;88277;-65
2022/03/18 01:00:48;;;;;;;11.25;10.15;;;20.70;63.40;;;;;;6157156;28;89064;-64
2022/03/18 01:03:50;;;;;;;13.02;10.80;;;20.70;63.40;;;;;;6157546;28;89124;-64
2022/03/18 01:06:53;;;;;;;11.27;10.27;;;20.70;63.40;;;;;;6156752;28;88987;-65
2022/03/18 01:09:56;;;;;;;12.18;11.00;;;20.70;63.40;;;;;;6164466;28;89398;-65
2022/03/18 01:12:58;;;;;;;11.20;10.10;;;20.70;63.40;;;;;;6180607;28;89075;-65
2022/03/18 01:16:00;;;;;;;11.88;10.77;;;20.70;63.30;;;;;;6179375;28;89191;-64
2022/03/18 01:19:02;;;;;;;11.77;10.60;;;20.70;63.40;;;;;;6182244;28;87091;-64
2022/03/18 01:22:05;;;;;;;11.32;10.32;;;20.70;63.30;;;;;;6181738;28;89189;-64
2022/03/18 01:25:09;;;;;;;11.88;10.77;;;20.70;63.40;;;;;;6180553;28;89382;-64
2022/03/18 01:28:11;;;;;;;12.02;10.90;;;20.70;63.30;;;;;;6181683;28;88812;-64
2022/03/18 01:31:13;;;;;;;11.35;10.25;;;20.70;63.40;;;;;;6180307;28;89099;-64
2022/03/18 01:34:15;;;;;;;11.85;10.75;;;20.70;63.30;;;;;;6179797;28;89037;-65
2022/03/18 01:37:17;;;;;;;11.48;10.35;;;20.70;63.30;;;;;;6181644;28;90051;-64
2022/03/18 01:40:21;;;;;;;11.85;10.77;;;20.70;63.30;;;;;;6181646;28;89113;-64
2022/03/18 01:43:23;;;;;;;11.07;9.98;;;20.70;63.40;;;;;;6179881;28;89069;-64
2022/03/18 01:46:25;;;;;;;11.93;10.73;;;20.70;63.40;;;;;;6179868;28;89285;-64
2022/03/18 01:49:27;;;;;;;10.57;9.57;;;20.70;63.30;;;;;;6182109;28;89070;-64
2022/03/18 01:52:29;;;;;;;11.20;10.20;;;20.70;63.30;;;;;;6183711;28;89247;-65
2022/03/18 01:55:32;;;;;;;11.35;10.27;;;20.70;63.30;;;;;;6166120;28;88805;-64
2022/03/18 01:58:35;;;;;;;11.15;10.15;;;20.60;63.10;;;;;;6162089;28;88493;-65
2022/03/18 02:01:37;;;;;;;11.52;10.43;;;20.60;63.10;;;;;;6159054;28;89131;-64
2022/03/18 02:04:40;;;;;;;11.18;10.18;;;20.60;63.20;;;;;;6177424;28;89762;-64
2022/03/18 02:07:44;;;;;;;10.60;9.60;;;20.60;63.10;;;;;;6184068;28;90035;-64
2022/03/18 02:10:48;;;;;;;10.95;9.95;;;20.60;63.10;;;;;;6185220;28;89164;-64
2022/03/18 02:13:51;;;;;;;11.55;10.50;;;20.60;63.10;;;;;;6186376;28;89138;-64
2022/03/18 02:16:53;;;;;;;11.77;10.68;;;20.70;63.10;;;;;;6184164;28;89062;-64
2022/03/18 02:19:55;;;;;;;11.20;10.20;;;20.70;63.10;;;;;;6184593;28;89375;-65
2022/03/18 02:22:59;;;;;;;11.23;10.13;;;20.60;63.10;;;;;;6182320;28;89130;-64
2022/03/18 02:26:01;;;;;;;11.25;10.25;;;20.60;63.10;;;;;;6184473;28;90612;-64
2022/03/18 02:29:04;;;;;;;11.30;10.30;;;20.60;63.10;;;;;;6184238;28;88333;-64
2022/03/18 02:32:08;;;;;;;11.13;10.13;;;20.60;63.00;;;;;;6183301;28;89238;-65
2022/03/18 02:35:10;;;;;;;11.15;10.05;;;20.60;63.00;;;;;;6184050;28;89110;-64
2022/03/18 02:38:14;;;;;;;11.13;10.13;;;20.60;63.10;;;;;;6183753;28;89230;-64
2022/03/18 02:41:16;;;;;;;10.95;9.95;;;20.60;63.00;;;;;;6182363;28;89402;-64
2022/03/18 02:44:18;;;;;;;10.63;9.73;;;20.60;63.00;;;;;;6184841;28;88002;-64
2022/03/18 02:47:20;;;;;;;10.55;9.65;;;20.60;62.90;;;;;;6181424;28;89378;-65
2022/03/18 02:50:22;;;;;;;10.50;9.50;;;20.60;62.90;;;;;;6184437;28;89096;-65
2022/03/18 02:53:25;;;;;;;10.43;9.43;;;20.60;62.90;;;;;;6183413;28;87923;-65
2022/03/18 02:56:27;;;;;;;10.65;9.65;;;20.60;62.90;;;;;;6171492;28;89564;-64
2022/03/18 02:59:30;;;;;;;11.10;10.00;;;20.60;62.90;;;;;;6184575;28;88448;-64
2022/03/18 03:02:32;;;;;;;10.88;9.88;;;20.60;62.90;;;;;;6182682;28;89064;-64
2022/03/18 03:08:54;;;;;;;10.85;9.85;;;20.60;62.90;;;;;;6182401;28;88129;-65
2022/03/18 03:11:57;;;;;;;10.40;9.50;;;20.60;62.90;;;;;;6183475;28;89370;-65
2022/03/18 03:14:59;;;;;;;10.98;9.98;;;20.60;62.80;;;;;;6183242;28;88993;-65
2022/03/18 03:18:01;;;;;;;10.82;9.82;;;20.60;62.80;;;;;;6184095;28;87982;-65
2022/03/18 03:21:03;;;;;;;10.85;9.88;;;20.60;62.80;;;;;;6183891;28;89181;-65
2022/03/18 03:24:08;;;;;;;11.02;10.02;;;20.50;62.80;;;;;;6184469;28;89073;-64
2022/03/18 03:27:10;;;;;;;10.60;9.68;;;20.50;62.70;;;;;;6182974;28;89207;-65
2022/03/18 03:30:13;;;;;;;10.95;9.85;;;20.50;62.70;;;;;;6182916;28;88330;-65
2022/03/18 03:33:15;;;;;;;10.88;9.77;;;20.50;62.70;;;;;;6183390;28;88311;-65
2022/03/18 03:36:18;;;;;;;11.02;10.02;;;20.50;62.70;;;;;;6182873;28;88735;-65
2022/03/18 03:39:21;;;;;;;10.85;9.80;;;20.50;62.70;;;;;;6173715;28;92024;-65
2022/03/18 03:42:23;;;;;;;10.63;9.73;;;20.60;62.80;;;;;;6182679;28;89096;-65
2022/03/18 03:45:25;;;;;;;10.95;9.95;;;20.50;62.70;;;;;;6183208;28;89463;-65
2022/03/18 03:48:27;;;;;;;11.23;10.18;;;20.50;62.70;;;;;;6182870;28;89550;-65
2022/03/18 03:51:29;;;;;;;10.52;9.52;;;20.50;62.60;;;;;;6181872;28;89079;-65
2022/03/18 03:54:33;;;;;;;11.48;10.32;;;20.50;62.70;;;;;;6179730;28;89047;-65
2022/03/18 03:57:53;;;;;;;10.45;9.50;;;20.50;62.70;;;;;;6182291;28;89076;-65
2022/03/18 04:00:55;;;;;;;11.27;10.18;;;20.50;62.60;;;;;;6184634;28;88279;-64
2022/03/18 04:03:58;;;;;;;11.05;10.05;;;20.50;62.60;;;;;;6182801;28;89066;-64
2022/03/18 04:07:00;;;;;;;10.82;9.82;;;20.50;62.40;;;;;;6181615;28;88009;-65
2022/03/18 04:10:04;;;;;;;10.73;9.73;;;20.50;62.40;;;;;;6181605;28;90059;-65
2022/03/18 04:13:06;;;;;;;11.10;10.10;;;20.50;62.30;;;;;;6182864;28;87806;-65
2022/03/18 04:16:08;;;;;;;11.10;10.10;;;20.50;62.30;;;;;;6182238;28;87892;-64
2022/03/18 04:19:10;;;;;;;10.98;9.98;;;20.50;62.20;;;;;;6182518;28;89106;-65
2022/03/18 04:22:12;;;;;;;10.68;9.68;;;20.50;62.20;;;;;;6181047;28;89180;-65
2022/03/18 04:25:16;;;;;;;11.00;10.00;;;20.50;62.20;;;;;;6183380;28;89142;-64
2022/03/18 04:28:18;;;;;;;10.68;9.65;;;20.50;62.20;;;;;;6169847;28;89171;-65
2022/03/18 04:31:20;;;;;;;11.23;10.18;;;20.50;62.20;;;;;;6182656;28;88668;-65
2022/03/18 04:34:22;;;;;;;11.40;10.35;;;20.50;62.20;;;;;;6182914;28;88993;-65
2022/03/18 04:37:24;;;;;;;11.55;10.45;;;20.50;62.10;;;;;;6182074;28;89903;-65
2022/03/18 04:40:28;;;;;;;11.55;10.48;;;20.50;62.10;;;;;;6181337;28;88959;-65
2022/03/18 04:43:30;;;;;;;11.27;10.23;;;20.50;62.20;;;;;;6181946;28;89028;-65
2022/03/18 04:46:33;;;;;;;10.98;10.00;;;20.50;62.10;;;;;;6181521;28;88990;-64
2022/03/18 04:49:35;;;;;;;11.50;10.40;;;20.50;62.30;;;;;;6182297;28;89113;-65
2022/03/18 04:52:37;;;;;;;10.38;9.48;;;20.50;62.20;;;;;;6181543;28;89163;-65
2022/03/18 04:55:41;;;;;;;11.57;10.38;;;20.50;62.30;;;;;;6171901;28;87928;-65
2022/03/18 04:58:43;;;;;;;11.40;10.40;;;20.50;62.40;;;;;;6182831;28;88995;-65
2022/03/18 05:01:45;;;;;;;11.35;10.25;;;20.50;62.40;;;;;;6181688;28;88307;-65
2022/03/18 05:04:48;;;;;;;11.50;10.50;;;20.50;62.60;;;;;;6180451;28;89146;-65
2022/03/18 05:07:51;;;;;;;10.90;9.90;;;20.50;62.50;;;;;;6181659;28;89116;-65
2022/03/18 05:10:55;;;;;;;11.30;10.30;;;20.50;62.50;;;;;;6178466;28;89952;-65
2022/03/18 05:13:58;;;;;;;11.32;10.32;;;20.50;62.20;;;;;;6179425;28;89273;-65
2022/03/18 05:17:00;;;;;;;11.43;10.43;;;20.50;63.30;;;;;;6181177;28;89323;-65
2022/03/18 05:20:03;;;;;;;11.30;10.20;;;20.50;62.20;;;;;;6180061;28;89181;-65
2022/03/18 05:23:05;;;;;;;11.32;10.30;;;20.50;62.20;;;;;;6182606;28;89154;-65
2022/03/18 05:26:09;;;;;;;11.70;10.70;;;20.60;62.20;;;;;;6180080;28;89091;-65
2022/03/18 05:29:11;;;;;;;11.35;10.35;;;20.50;62.00;;;;;;6185852;28;87082;-65
2022/03/18 05:32:13;;;;;;;11.50;10.50;;;20.50;61.90;;;;;;6186018;28;88354;-65
2022/03/18 05:35:18;;;;;;;11.65;10.65;;;20.60;62.00;;;;;;6186552;28;88150;-65
2022/03/18 05:38:20;;;;;;;11.95;10.85;;;20.50;61.80;;;;;;6185257;28;89185;-65
2022/03/18 05:41:24;;;;;;;12.15;10.95;;;20.50;61.70;;;;;;6184777;28;88989;-65
2022/03/18 05:44:26;;;;;;;11.23;10.23;;;20.50;61.70;;;;;;6184443;28;89183;-65
2022/03/18 05:47:30;;;;;;;11.63;10.45;;;20.50;61.70;;;;;;6184187;28;89018;-65
2022/03/18 05:50:33;;;;;;;12.55;11.35;;;20.60;61.70;;;;;;6184817;28;89194;-65
2022/03/18 05:53:35;;;;;;;37.40;19.10;;;20.50;61.70;;;;;;6172580;28;89621;-66
2022/03/18 05:56:55;;;;;;;18.75;14.60;;;20.60;61.70;;;;;;6180064;28;89053;-64
2022/03/18 05:59:58;;;;;;;16.02;14.35;;;20.60;61.20;;;;;;6183659;28;89114;-64
2022/03/18 06:03:00;;;;;;;15.80;14.30;;;20.60;62.70;;;;;;6185913;28;88350;-65
2022/03/18 06:06:02;;;;;;;14.43;13.13;;;20.60;63.10;;;;;;6184865;28;89209;-65
2022/03/18 06:12:26;;;;;;;15.15;13.65;;;20.70;63.40;;;;;;6183945;28;88105;-66
2022/03/18 06:15:28;;;;;;;15.02;13.63;;;20.80;62.90;;;;;;6182773;28;89091;-66
2022/03/18 06:18:30;;;;;;;15.13;13.55;;;20.90;62.70;;;;;;6181638;28;89164;-64
2022/03/18 06:21:32;;;;;;;13.45;12.15;;;20.90;62.70;;;;;;6182729;28;89162;-65
2022/03/18 06:24:35;;;;;;;13.00;11.73;;;20.90;62.40;;;;;;6182435;28;89078;-65
2022/03/18 06:27:38;;;;;;;13.05;11.80;;;20.90;62.40;;;;;;6182480;28;89480;-64
2022/03/18 06:30:41;;;;;;;12.20;11.10;;;20.80;62.90;;;;;;6183642;28;89264;-64
2022/03/18 06:33:44;;;;;;;12.82;11.52;;;20.80;62.60;;;;;;6183675;28;88871;-65
2022/03/18 06:36:47;;;;;;;12.88;11.63;;;20.80;62.60;;;;;;6182485;28;88028;-64
2022/03/18 06:39:49;;;;;;;17.92;11.50;;;20.80;62.70;;;;;;6184005;28;88998;-64
2022/03/18 06:42:52;;;;;;;13.80;11.82;;;20.80;63.20;;;;;;6181777;28;90057;-65
2022/03/18 06:45:54;;;;;;;19.42;12.80;;;20.80;63.90;;;;;;6181982;28;87228;-65
2022/03/18 06:48:56;;;;;;;23.42;13.95;;;20.80;64.50;;;;;;6182742;28;88046;-64
2022/03/18 06:51:59;;;;;;;24.63;14.00;;;20.70;65.10;;;;;;6184779;28;89090;-64
2022/03/18 06:55:01;;;;;;;21.65;13.60;;;20.70;65.30;;;;;;6174031;28;89156;-64
2022/03/18 06:58:04;;;;;;;20.63;12.68;;;20.70;65.40;;;;;;6182611;28;87963;-64
2022/03/18 07:01:06;;;;;;;14.60;11.82;;;20.70;65.30;;;;;;6184066;28;89111;-64
2022/03/18 07:04:08;;;;;;;13.63;11.45;;;20.70;65.00;;;;;;6183726;28;88435;-64
2022/03/18 07:07:10;;;;;;;14.20;11.55;;;20.80;64.90;;;;;;6182695;28;89064;-65
2022/03/18 07:10:13;;;;;;;15.93;11.32;;;20.70;64.80;;;;;;6184132;28;89110;-64
2022/03/18 07:13:17;;;;;;;14.73;11.88;;;20.70;65.00;;;;;;6181685;28;89915;-64
2022/03/18 07:19:39;;;;;;;24.88;15.23;;;20.70;66.00;;;;;;6183159;28;87335;-64
2022/03/18 07:22:41;;;;;;;22.88;14.18;;;20.80;67.40;;;;;;6183941;28;89107;-64
2022/03/18 07:25:46;;;;;;;19.95;13.23;;;20.70;67.80;;;;;;6181795;28;89406;-65
2022/03/18 07:28:50;;;;;;;17.25;12.85;;;20.80;67.70;;;;;;6182060;28;89130;-64
2022/03/18 07:31:54;;;;;;;15.70;11.88;;;20.80;67.50;;;;;;6184352;28;89404;-65
2022/03/18 07:34:57;;;;;;;14.60;11.70;;;20.80;67.30;;;;;;6182013;28;88506;-64
2022/03/18 07:37:59;;;;;;;14.20;11.50;;;20.80;67.10;;;;;;6182675;28;89061;-64
2022/03/18 07:41:01;;;;;;;13.30;11.05;;;20.80;66.80;;;;;;6181231;28;89333;-64
2022/03/18 07:44:05;;;;;;;12.07;10.77;;;20.90;66.80;;;;;;6180517;28;90010;-64
2022/03/18 07:47:08;;;;;;;13.05;10.90;;;20.80;66.50;;;;;;6182389;28;89062;-64
2022/03/18 07:50:10;;;;;;;12.20;10.95;;;20.90;66.50;;;;;;6167892;28;89105;-64
2022/03/18 07:53:12;;;;;;;11.85;10.27;;;20.90;66.30;;;;;;6163333;28;89116;-64
2022/03/18 07:56:14;;;;;;;11.20;10.10;;;20.80;66.20;;;;;;6172483;28;89140;-64
2022/03/18 07:59:18;;;;;;;11.13;10.02;;;20.90;66.20;;;;;;6182500;28;89100;-64
2022/03/18 08:02:21;;;;;;;11.90;10.15;;;20.90;66.10;;;;;;6183032;28;88916;-64
2022/03/18 08:05:23;;;;;;;11.70;10.52;;;20.90;66.00;;;;;;6181580;28;88360;-65
2022/03/18 08:08:25;;;;;;;11.63;10.43;;;20.90;66.00;;;;;;6182172;28;88062;-64
2022/03/18 08:11:28;;;;;;;11.45;10.05;;;20.90;66.00;;;;;;6183040;28;89056;-64
2022/03/18 08:14:31;;;;;;;11.18;10.05;;;20.90;65.90;;;;;;6182027;28;91116;-64
2022/03/18 08:17:33;;;;;;;11.45;10.25;;;20.90;65.80;;;;;;6183611;28;89163;-64
2022/03/18 08:20:40;;;;;;;10.68;9.57;;;21.00;65.90;;;;;;6182460;28;89154;-64
2022/03/18 08:23:42;;;;;;;10.85;9.38;;;21.00;65.80;;;;;;6182390;28;88085;-64
2022/03/18 08:26:44;;;;;;;11.48;9.93;;;21.00;65.80;;;;;;6183359;28;88432;-64
2022/03/18 08:29:48;;;;;;;11.00;9.90;;;20.90;65.80;;;;;;6181143;28;89233;-64
2022/03/18 08:32:50;;;;;;;10.80;9.70;;;21.00;65.80;;;;;;6183533;28;87108;-64
2022/03/18 08:35:52;;;;;;;10.70;9.65;;;21.00;65.80;;;;;;6182519;28;88337;-64
2022/03/18 08:38:54;;;;;;;10.60;9.60;;;21.00;65.80;;;;;;6183961;28;89378;-64
2022/03/18 08:41:56;;;;;;;11.25;9.55;;;21.00;65.70;;;;;;6182689;28;89084;-64
2022/03/18 08:45:00;;;;;;;10.45;9.40;;;21.00;65.70;;;;;;6181166;28;90107;-64
2022/03/18 08:48:02;;;;;;;10.60;9.60;;;21.00;66.60;;;;;;6181564;28;88063;-64
2022/03/18 08:51:04;;;;;;;10.50;9.40;;;21.00;65.70;;;;;;6183054;28;89052;-64
2022/03/18 08:54:06;;;;;;;10.70;9.70;;;21.00;65.70;;;;;;6177539;28;88088;-64
2022/03/18 08:57:08;;;;;;;9.52;8.60;;;21.00;70.50;;;;;;6179393;28;87947;-65
2022/03/18 09:00:14;;;;;;;10.00;9.00;;;21.10;70.30;;;;;;6184251;28;89018;-65
2022/03/18 09:03:17;;;;;;;19.15;9.63;;;21.00;69.00;;;;;;6179992;28;89449;-65
2022/03/18 09:06:19;;;;;;;10.05;8.95;;;21.10;69.20;;;;;;6183622;28;88339;-65
2022/03/18 09:09:21;;;;;;;9.93;8.88;;;21.10;69.00;;;;;;6182681;28;89627;-65
2022/03/18 09:12:23;;;;;;;10.30;9.18;;;21.20;68.00;;;;;;6180828;28;89157;-65
2022/03/18 09:15:27;;;;;;;10.23;9.18;;;21.20;67.20;;;;;;6181732;28;90231;-65
2022/03/18 09:18:29;;;;;;;9.35;8.45;;;21.20;66.80;;;;;;6181885;28;89061;-65
2022/03/18 09:21:31;;;;;;;9.30;8.30;;;21.20;66.80;;;;;;6180071;28;88038;-65
2022/03/18 09:24:34;;;;;;;9.27;8.18;;;21.30;66.50;;;;;;6182721;28;89140;-65
2022/03/18 09:27:36;;;;;;;9.32;8.40;;;21.30;66.30;;;;;;6181656;28;89124;-65
2022/03/18 09:30:39;;;;;;;9.38;8.38;;;21.30;66.10;;;;;;6180386;28;89119;-65
2022/03/18 09:33:42;;;;;;;9.40;8.52;;;21.40;66.10;;;;;;6182946;28;89024;-65
2022/03/18 09:36:45;;;;;;;9.32;8.38;;;21.40;66.00;;;;;;6181861;28;88182;-65
2022/03/18 09:39:47;;;;;;;9.23;8.32;;;21.40;66.00;;;;;;6181253;28;89020;-65
2022/03/18 09:42:56;;;;;;;9.27;8.38;;;21.40;66.00;;;;;;6180178;28;89121;-65
2022/03/18 09:46:00;;;;;;;9.18;8.27;;;21.50;65.90;;;;;;6180378;28;90013;-65
2022/03/18 09:49:05;;;;;;;9.23;8.32;;;21.50;65.90;;;;;;6183217;28;87993;-65
2022/03/18 09:52:08;;;;;;;9.10;8.20;;;21.50;65.80;;;;;;6181706;28;87981;-64
2022/03/18 09:55:10;;;;;;;9.18;8.15;;;21.50;65.70;;;;;;6170963;28;89079;-65
2022/03/18 09:58:13;;;;;;;9.38;8.48;;;21.50;65.70;;;;;;6182014;28;89110;-65
2022/03/18 10:01:18;;;;;;;8.77;7.97;;;21.60;65.70;;;;;;6179638;28;89080;-65
2022/03/18 10:04:19;;;;;;;9.48;8.57;;;21.60;65.80;;;;;;6179948;28;89186;-65
2022/03/18 10:07:22;;;;;;;8.77;7.90;;;21.60;65.80;;;;;;6180661;28;88516;-65
2022/03/18 10:10:27;;;;;;;8.63;7.82;;;21.60;65.70;;;;;;6181735;28;89100;-65
2022/03/18 10:13:49;;;;;;;8.63;7.78;;;21.60;65.70;;;;;;6182361;28;89121;-65
2022/03/18 10:16:54;;;;;;;8.75;7.95;;;21.70;65.60;;;;;;6184579;28;90042;-64
2022/03/18 10:19:56;;;;;;;8.43;7.63;;;21.70;65.60;;;;;;6170729;28;87945;-65
2022/03/18 10:23:03;;;;;;;8.70;7.90;;;21.70;65.60;;;;;;6185765;28;89071;-65
2022/03/18 10:26:05;;;;;;;8.70;7.90;;;21.70;65.60;;;;;;6183174;28;88103;-65
2022/03/18 10:29:11;;;;;;;8.38;7.63;;;21.70;65.60;;;;;;6183403;28;89434;-64
2022/03/18 10:32:16;;;;;;;8.95;8.15;;;21.70;65.70;;;;;;6185111;28;89403;-66
2022/03/18 10:38:50;;;;;;;8.25;7.53;;;21.80;65.70;;;;;;6185288;28;86730;-65
2022/03/18 10:41:53;;;;;;;8.32;7.53;;;21.80;65.70;;;;;;6184071;28;89086;-65
2022/03/18 10:44:57;;;;;;;8.40;7.60;;;21.80;65.70;;;;;;6184767;28;88046;-65
2022/03/18 10:48:13;;;;;;;8.30;7.55;;;21.80;65.70;;;;;;6184100;28;89966;-65
2022/03/18 10:51:15;;;;;;;8.63;7.82;;;21.80;65.60;;;;;;6183320;28;87888;-65
2022/03/18 10:54:24;;;;;;;8.50;7.70;;;21.90;65.70;;;;;;6173615;28;89344;-65
2022/03/18 10:57:27;;;;;;;8.50;7.70;;;21.90;65.70;;;;;;6184950;28;88975;-65
2022/03/18 11:00:31;;;;;;;8.32;7.63;;;21.90;65.60;;;;;;6184957;28;88849;-65
2022/03/18 11:03:35;;;;;;;8.30;7.60;;;21.90;65.50;;;;;;6183212;28;89077;-64
2022/03/18 11:06:37;;;;;;;8.05;7.25;;;21.90;65.60;;;;;;6185470;28;89174;-65
2022/03/18 11:13:05;;;;;;;8.38;7.47;;;21.90;65.60;;;;;;6184701;28;87522;-65
2022/03/18 11:16:10;;;;;;;8.52;7.75;;;21.90;65.60;;;;;;6184205;28;89026;-65
2022/03/18 11:19:14;;;;;;;8.27;7.57;;;21.90;65.50;;;;;;6182395;28;90123;-65
2022/03/18 11:22:17;;;;;;;8.85;8.05;;;21.90;65.40;;;;;;6183152;28;89419;-65
2022/03/18 11:25:20;;;;;;;8.27;7.53;;;21.90;65.20;;;;;;6182532;28;89144;-65
2022/03/18 11:28:23;;;;;;;9.43;8.43;;;21.90;65.20;;;;;;6183351;28;89078;-65
2022/03/18 11:31:25;;;;;;;9.90;9.00;;;21.90;65.10;;;;;;6182564;28;89175;-65
2022/03/18 11:34:29;;;;;;;9.38;8.43;;;21.90;65.00;;;;;;6184649;28;89409;-65
2022/03/18 11:37:31;;;;;;;9.35;8.45;;;21.90;64.90;;;;;;6181131;28;89422;-65
2022/03/18 11:40:35;;;;;;;9.52;8.63;;;21.90;64.80;;;;;;6183263;28;87270;-65
2022/03/18 11:43:50;;;;;;;9.18;8.38;;;21.90;64.50;;;;;;6184755;28;89263;-65
2022/03/18 11:46:55;;;;;;;9.90;9.00;;;21.90;64.30;;;;;;6182790;28;89155;-65
2022/03/18 11:50:00;;;;;;;10.23;9.32;;;21.90;64.20;;;;;;6172076;28;88903;-65
2022/03/18 11:53:04;;;;;;;10.45;9.48;;;21.90;65.00;;;;;;6181068;28;88260;-65
2022/03/18 11:56:12;;;;;;;10.13;9.20;;;21.90;64.00;;;;;;6181021;28;89436;-65
2022/03/18 12:03:02;;;;;;;9.57;8.68;;;21.90;64.10;;;;;;6158763;28;87318;-65
2022/03/18 12:06:07;;;;;;;9.43;8.52;;;22.00;64.10;;;;;;6183104;28;88215;-65
2022/03/18 12:09:11;;;;;;;9.55;8.65;;;22.00;64.00;;;;;;6183445;28;87242;-65
2022/03/18 12:12:18;;;;;;;9.48;8.60;;;22.00;64.00;;;;;;6183556;28;88451;-65
2022/03/18 12:15:23;;;;;;;9.68;8.70;;;22.00;63.90;;;;;;6184143;28;87087;-65
2022/03/18 12:18:30;;;;;;;9.02;8.23;;;22.00;63.90;;;;;;6181089;28;89158;-65
2022/03/18 12:21:43;;;;;;;9.63;8.73;;;22.00;63.90;;;;;;6181461;28;90335;-65
2022/03/18 12:24:48;;;;;;;9.50;8.60;;;22.10;64.00;;;;;;6182602;28;88117;-65
2022/03/18 12:27:53;;;;;;;9.00;8.20;;;22.10;63.90;;;;;;6183105;28;88196;-65
2022/03/18 12:30:56;;;;;;;9.27;8.48;;;22.10;64.00;;;;;;6183122;28;88201;-65
2022/03/18 12:34:00;;;;;;;8.95;8.15;;;22.10;64.00;;;;;;6179891;28;88684;-65
2022/03/18 12:37:17;;;;;;;9.38;8.57;;;22.10;64.00;;;;;;6180511;28;88096;-65
2022/03/18 12:40:23;;;;;;;8.90;8.10;;;22.10;64.00;;;;;;6182202;28;88011;-65
2022/03/18 12:43:29;;;;;;;8.73;7.97;;;22.10;64.10;;;;;;6183264;28;86416;-65
2022/03/18 12:46:34;;;;;;;8.63;7.82;;;22.10;64.00;;;;;;6182977;28;88551;-65
2022/03/18 12:49:37;;;;;;;8.48;7.68;;;22.10;64.20;;;;;;6181963;28;87945;-65
2022/03/18 12:52:46;;;;;;;8.75;7.95;;;22.10;64.20;;;;;;6180680;28;88959;-65
2022/03/18 12:55:51;;;;;;;8.50;7.63;;;22.10;64.20;;;;;;6171674;28;89216;-64
2022/03/18 12:58:58;;;;;;;8.98;8.07;;;22.10;64.20;;;;;;6182756;28;87109;-65
2022/03/18 13:02:04;;;;;;;8.02;7.32;;;22.10;64.20;;;;;;6182082;28;88055;-64
2022/03/18 13:05:07;;;;;;;7.40;6.80;;;22.10;64.20;;;;;;6181719;28;88429;-65
2022/03/18 13:08:12;;;;;;;7.75;7.05;;;22.10;64.10;;;;;;6182131;28;87975;-65
2022/03/18 13:11:16;;;;;;;8.13;7.43;;;22.10;64.00;;;;;;6180977;28;89054;-64
2022/03/18 13:14:36;;;;;;;7.97;7.22;;;22.10;64.00;;;;;;6181899;28;87092;-62
2022/03/18 13:17:39;;;;;;;8.25;7.45;;;22.10;64.10;;;;;;6181118;28;88124;-62
2022/03/18 13:20:43;;;;;;;7.55;6.85;;;22.10;64.00;;;;;;6180675;28;88115;-62
2022/03/18 13:23:52;;;;;;;8.07;7.28;;;22.10;64.00;;;;;;6181058;28;89797;-62
2022/03/18 13:26:55;;;;;;;7.75;7.05;;;22.10;64.00;;;;;;6182039;28;88345;-62
2022/03/18 13:33:18;;;;;;;8.18;7.30;;;22.10;64.00;;;;;;6181726;28;87333;-62
2022/03/18 13:36:38;;;;;;;7.78;7.07;;;22.20;64.00;;;;;;6180815;28;87911;-62
2022/03/18 13:39:45;;;;;;;7.53;6.82;;;22.20;64.00;;;;;;6181604;28;87997;-62
2022/03/18 13:43:04;;;;;;;7.63;6.93;;;22.10;63.90;;;;;;6182529;28;87033;-62
2022/03/18 13:46:15;;;;;;;7.85;7.15;;;22.20;63.90;;;;;;6181477;28;87328;-62
2022/03/18 13:49:18;;;;;;;7.22;6.63;;;22.20;63.80;;;;;;6178467;28;87959;-62
2022/03/18 13:52:33;;;;;;;7.03;6.43;;;22.20;63.80;;;;;;6161502;28;89229;-62
2022/03/18 13:55:40;;;;;;;7.88;7.18;;;22.20;63.80;;;;;;6178728;28;90068;-62
2022/03/18 13:58:46;;;;;;;7.38;6.75;;;22.20;63.80;;;;;;6185763;28;88211;-62
2022/03/18 14:02:01;;;;;;;7.53;6.93;;;22.20;63.80;;;;;;6185978;28;89203;-62
2022/03/18 14:05:06;;;;;;;6.93;6.32;;;22.20;63.70;;;;;;6185881;28;88651;-62
2022/03/18 14:08:12;;;;;;;7.32;6.72;;;22.20;63.60;;;;;;6184851;28;88032;-65
2022/03/18 14:15:07;;;;;;;7.60;6.88;;;22.20;63.40;;;;;;6187554;28;86998;-64
2022/03/18 14:18:11;;;;;;;7.82;7.13;;;22.20;64.20;;;;;;6185742;28;88349;-62
2022/03/18 14:21:15;;;;;;;7.85;6.95;;;22.20;64.60;;;;;;6185776;28;89181;-63
2022/03/18 14:24:24;;;;;;;7.70;7.00;;;22.20;64.20;;;;;;6183830;28;89108;-63
2022/03/18 14:27:29;;;;;;;7.68;6.97;;;22.20;64.20;;;;;;6183914;28;88928;-63
2022/03/18 14:30:38;;;;;;;7.25;6.57;;;22.20;64.20;;;;;;6183846;28;87684;-63
2022/03/18 14:33:41;;;;;;;7.80;7.05;;;22.20;64.10;;;;;;6181145;28;87398;-63
2022/03/18 14:36:49;;;;;;;7.63;6.93;;;22.20;64.10;;;;;;6184293;28;87640;-63
2022/03/18 14:39:52;;;;;;;7.82;7.13;;;22.20;64.20;;;;;;6183705;28;87849;-63
2022/03/18 14:42:56;;;;;;;8.35;7.18;;;22.20;64.30;;;;;;6182945;28;88214;-63
2022/03/18 14:46:00;;;;;;;7.15;6.55;;;22.20;64.40;;;;;;6180481;28;88104;-63
2022/03/18 14:49:03;;;;;;;7.10;6.50;;;22.20;64.40;;;;;;6182547;28;87543;-63
2022/03/18 14:52:06;;;;;;;7.13;6.53;;;22.20;64.50;;;;;;6184024;28;88028;-63
2022/03/18 14:58:34;;;;;;;7.38;6.60;;;22.20;64.70;;;;;;6184553;28;88969;-64
2022/03/18 15:01:37;;;;;;;7.28;6.57;;;22.20;64.70;;;;;;6182380;28;88344;-64
2022/03/18 15:04:42;;;;;;;7.30;6.70;;;22.20;65.20;;;;;;6172551;28;88076;-64
2022/03/18 15:07:46;;;;;;;7.18;6.47;;;22.20;65.30;;;;;;6184000;28;87841;-64
2022/03/18 15:10:49;;;;;;;7.60;6.88;;;22.20;65.80;;;;;;6183774;28;88240;-64
2022/03/18 15:13:53;;;;;;;6.97;6.28;;;22.20;66.00;;;;;;6183707;28;88142;-64
2022/03/18 15:16:59;;;;;;;7.35;6.75;;;22.20;66.20;;;;;;6183103;28;87972;-64
2022/03/18 15:20:02;;;;;;;7.63;6.82;;;22.20;66.20;;;;;;6184574;28;87246;-65
2022/03/18 15:23:06;;;;;;;7.75;6.93;;;22.20;66.20;;;;;;6183792;28;88020;-64
2022/03/18 15:26:09;;;;;;;7.25;6.55;;;22.20;66.20;;;;;;6184414;28;88029;-65
2022/03/18 15:29:14;;;;;;;8.27;6.75;;;22.20;66.20;;;;;;6183184;28;89168;-64
2022/03/18 15:32:19;;;;;;;7.25;6.55;;;22.20;66.10;;;;;;6184428;28;89014;-65
2022/03/18 15:35:22;;;;;;;7.97;7.28;;;22.20;66.10;;;;;;6183787;28;88220;-64
2022/03/18 15:38:27;;;;;;;7.72;7.03;;;22.20;66.10;;;;;;6184106;28;88214;-64
2022/03/18 15:41:31;;;;;;;7.60;6.80;;;22.20;66.00;;;;;;6183924;28;87680;-65
2022/03/18 15:44:35;;;;;;;7.95;7.15;;;22.20;65.90;;;;;;6183887;28;89124;-64
2022/03/18 15:47:38;;;;;;;7.32;6.63;;;22.30;65.90;;;;;;6159484;28;87995;-64
2022/03/18 15:50:43;;;;;;;8.25;6.80;;;22.20;65.90;;;;;;6176463;28;86573;-64
2022/03/18 15:53:48;;;;;;;7.57;6.88;;;22.20;65.90;;;;;;6180935;28;87074;-65
2022/03/18 15:56:51;;;;;;;7.50;6.80;;;22.20;65.90;;;;;;6176401;28;87005;-64
2022/03/18 15:59:55;;;;;;;7.60;6.90;;;22.20;65.90;;;;;;6183196;28;89934;-65
2022/03/18 16:03:01;;;;;;;7.38;6.72;;;22.20;65.80;;;;;;6184083;28;87103;-64
2022/03/18 16:06:04;;;;;;;7.65;6.85;;;22.20;65.70;;;;;;6182341;28;87954;-64
2022/03/18 16:09:08;;;;;;;7.13;6.53;;;22.20;65.70;;;;;;6181886;28;88079;-64
2022/03/18 16:12:11;;;;;;;7.07;6.38;;;22.20;65.70;;;;;;6183668;28;88360;-64
2022/03/18 16:15:25;;;;;;;7.53;6.45;;;22.20;66.10;;;;;;6182392;28;89136;-64
2022/03/18 16:18:29;;;;;;;7.00;6.40;;;22.30;65.60;;;;;;6182820;28;87773;-65
2022/03/18 16:21:32;;;;;;;7.07;6.47;;;22.20;65.50;;;;;;6183537;28;88374;-65
2022/03/18 16:24:38;;;;;;;7.03;6.43;;;22.20;65.40;;;;;;6183463;28;89455;-64